Time;durP1;ratioP1;P1;durP2;ratioP2;P2;SDS_P1;SDS_P2;PMS_P1;PMS_P2;Temp;Humidity;BMP_temperature;BMP_pressure;BME280_temperature;BME280_humidity;BME280_pressure;Samples;Min_cycle;Max_cycle;Signal;HPM_P1;HPM_P2
2021/12/07 00:00:40;;;;;;;27.17;12.65;;;;;;;10.34;55.57;100553.09;4957973;29;20039;-66
2021/12/07 00:03:05;;;;;;;20.92;9.80;;;;;;;10.22;56.13;100555.53;4973612;29;20037;-67
2021/12/07 00:05:31;;;;;;;20.67;7.32;;;;;;;10.41;56.12;100562.84;4957940;29;20062;-66
2021/12/07 00:07:56;;;;;;;23.58;4.78;;;;;;;9.65;59.29;100558.63;4941994;29;20035;-66
2021/12/07 00:10:22;;;;;;;18.65;3.30;;;;;;;9.81;59.90;100564.59;4941758;29;20031;-67
2021/12/07 00:12:47;;;;;;;18.33;3.58;;;;;;;9.96;59.68;100568.97;4957848;29;20038;-66
2021/12/07 00:15:17;;;;;;;13.95;2.92;;;;;;;9.77;60.88;100566.34;4974366;29;20046;-63
2021/12/07 00:17:43;;;;;;;14.20;2.78;;;;;;;10.23;59.51;100570.03;4958241;29;20031;-65
2021/12/07 00:20:15;;;;;;;23.27;3.30;;;;;;;10.31;59.19;100570.13;4974332;29;20032;-67
2021/12/07 00:22:42;;;;;;;12.05;2.42;;;;;;;10.61;57.95;100577.97;4974768;29;20035;-66
2021/12/07 00:25:08;;;;;;;14.75;2.75;;;;;;;10.31;58.47;100592.03;4973949;29;20047;-66
2021/12/07 00:27:35;;;;;;;12.60;2.90;;;;;;;10.37;58.46;100594.69;4974732;29;20051;-68
2021/12/07 00:30:04;;;;;;;9.98;2.42;;;;;;;10.59;57.46;100592.00;4974432;29;20039;-64
2021/12/07 00:32:35;;;;;;;13.40;2.47;;;;;;;10.35;57.92;100597.75;4941790;29;20038;-65
2021/12/07 00:37:31;;;;;;;13.65;2.20;;;;;;;10.42;57.00;100602.78;4974198;29;20096;-64
2021/12/07 00:39:58;;;;;;;13.48;3.00;;;;;;;9.98;57.86;100605.88;4974485;29;20062;-65
2021/12/07 00:42:24;;;;;;;24.65;2.92;;;;;;;10.47;56.30;100611.72;4973787;29;20062;-67
2021/12/07 00:44:50;;;;;;;16.42;2.45;;;;;;;10.63;55.32;100609.47;4974189;28;20034;-65
2021/12/07 00:47:16;;;;;;;16.33;2.25;;;;;;;10.87;54.89;100624.81;4940680;29;20043;-67
2021/12/07 00:49:42;;;;;;;15.27;2.83;;;;;;;10.70;55.37;100622.72;4974130;29;20079;-65
2021/12/07 00:52:09;;;;;;;11.48;2.45;;;;;;;10.29;55.97;100621.69;4972823;29;20031;-64
2021/12/07 00:54:34;;;;;;;15.07;2.22;;;;;;;10.57;55.83;100627.13;4974028;29;20047;-64
2021/12/07 00:57:02;;;;;;;21.55;2.58;;;;;;;11.22;53.93;100639.59;4973959;29;20058;-66
2021/12/07 00:59:28;;;;;;;13.95;2.40;;;;;;;10.96;54.56;100631.19;4956902;29;20059;-65
2021/12/07 01:01:53;;;;;;;17.48;3.05;;;;;;;10.83;53.84;100635.59;4957358;29;20031;-66
2021/12/07 01:04:18;;;;;;;14.15;2.50;;;;;;;11.03;54.24;100645.28;4940278;29;20062;-66
2021/12/07 01:07:03;;;;;;;15.00;2.70;;;;;;;10.86;54.06;100645.13;4956979;29;20035;-65
2021/12/07 01:09:37;;;;;;;9.98;2.28;;;;;;;11.37;53.02;100649.41;4956432;29;20023;-65
2021/12/07 01:25:52;;;;;;;13.60;2.58;;;;;;;10.70;54.17;100670.16;4945511;29;20062;-64
2021/12/07 01:28:38;;;;;;;12.15;2.10;;;;;;;11.20;53.05;100682.22;4956492;29;20043;-67
2021/12/07 01:31:27;;;;;;;11.18;2.22;;;;;;;11.07;53.35;100681.94;4973477;29;20034;-65
2021/12/07 01:45:03;;;;;;;11.10;2.25;;;;;;;11.23;52.52;100695.28;4958403;29;20057;-68
2021/12/07 02:00:45;;;;;;;13.50;2.30;;;;;;;11.00;54.02;100736.41;4952953;29;20062;-64
2021/12/07 02:03:10;;;;;;;14.77;2.60;;;;;;;11.28;52.65;100732.75;4972928;29;20060;-66
2021/12/07 02:05:36;;;;;;;14.57;2.33;;;;;;;11.01;53.32;100732.56;4955528;29;20593;-64
2021/12/07 02:08:02;;;;;;;13.30;2.47;;;;;;;10.86;53.64;100732.88;4972992;29;20479;-63
2021/12/07 02:10:30;;;;;;;15.85;2.90;;;;;;;10.76;53.74;100741.34;4955456;29;20035;-65
2021/12/07 02:13:02;;;;;;;10.98;2.25;;;;;;;10.85;53.45;100747.75;4955838;29;20023;-66
2021/12/07 02:15:29;;;;;;;12.57;2.47;;;;;;;10.51;53.80;100755.28;4955508;29;20031;-65
2021/12/07 02:17:54;;;;;;;19.38;2.30;;;;;;;10.96;52.53;100754.63;4955920;29;20039;-66
2021/12/07 02:20:23;;;;;;;16.70;2.10;;;;;;;10.78;53.30;100750.88;4955441;29;20094;-66
2021/12/07 02:22:48;;;;;;;12.10;2.15;;;;;;;10.98;52.57;100752.38;4956121;29;20038;-66
2021/12/07 02:25:16;;;;;;;11.23;2.00;;;;;;;10.67;53.30;100758.53;4955703;29;20059;-66
2021/12/07 02:27:41;;;;;;;12.38;2.05;;;;;;;10.62;53.58;100755.84;4972495;29;20031;-66
2021/12/07 02:30:10;;;;;;;8.98;2.08;;;;;;;10.86;52.61;100752.91;4972798;29;20543;-64
2021/12/07 02:32:37;;;;;;;11.25;1.90;;;;;;;10.88;52.35;100763.56;4955302;29;20043;-64
2021/12/07 02:35:03;;;;;;;12.10;2.35;;;;;;;10.50;53.70;100769.28;4972009;29;20186;-63
2021/12/07 02:37:31;;;;;;;13.48;2.40;;;;;;;10.95;52.88;100783.16;4955359;29;20027;-65
2021/12/07 02:39:57;;;;;;;10.88;1.65;;;;;;;11.16;52.73;100791.75;4972539;29;20535;-65
2021/12/07 02:42:24;;;;;;;10.57;2.22;;;;;;;10.81;53.78;100790.59;4955337;29;20094;-65
2021/12/07 02:44:50;;;;;;;11.57;2.05;;;;;;;10.80;53.81;100795.28;4972775;29;20038;-65
2021/12/07 02:47:16;;;;;;;13.25;2.00;;;;;;;11.07;53.07;100799.91;4972656;29;20027;-66
2021/12/07 02:49:42;;;;;;;9.88;1.75;;;;;;;11.31;52.42;100796.09;4955196;29;20049;-64
2021/12/07 02:52:07;;;;;;;6.80;1.70;;;;;;;11.47;52.08;100802.06;4955691;29;20035;-66
2021/12/07 02:54:35;;;;;;;11.73;2.30;;;;;;;11.67;51.86;100795.25;4955453;29;20035;-65
2021/12/07 02:57:01;;;;;;;;;;;;;;;11.81;51.36;100797.94;4956295;29;20079;-65
2021/12/07 02:59:28;;;;;;;8.03;2.17;;;;;;;10.73;53.99;100805.03;4971104;29;19914;-65
2021/12/07 03:02:06;;;;;;;7.90;2.47;;;;;;;11.49;52.31;100796.25;4972434;29;20313;-65
2021/12/07 03:04:38;;;;;;;10.70;2.45;;;;;;;11.23;53.31;100797.66;4971877;29;20067;-63
2021/12/07 03:07:40;;;;;;;12.38;1.75;;;;;;;10.65;54.21;100799.13;4972475;29;20082;-64
2021/12/07 03:26:00;;;;;;;16.40;2.08;;;;;;;11.15;52.84;100838.69;4974986;29;20066;-65
2021/12/07 03:28:27;;;;;;;10.27;1.95;;;;;;;11.33;52.38;100840.50;4975650;29;20788;-68
2021/12/07 03:30:52;;;;;;;12.48;2.15;;;;;;;11.53;52.02;100849.41;4975486;29;20079;-65
2021/12/07 03:33:18;;;;;;;12.88;2.78;;;;;;;11.00;53.13;100840.66;4958424;29;20054;-63
2021/12/07 03:35:43;;;;;;;20.67;2.20;;;;;;;11.28;52.90;100840.63;4958080;29;20050;-64
2021/12/07 03:38:09;;;;;;;17.23;2.67;;;;;;;11.20;52.59;100842.16;4958158;29;20064;-64
2021/12/07 03:40:36;;;;;;;13.95;2.53;;;;;;;11.67;51.65;100850.16;4974217;29;20035;-64
2021/12/07 03:43:03;;;;;;;12.40;2.40;;;;;;;11.84;51.10;100849.50;4974941;29;20035;-64
2021/12/07 03:45:28;;;;;;;13.38;2.00;;;;;;;12.14;50.14;100858.16;4973929;28;20071;-66
2021/12/07 03:47:55;;;;;;;11.80;2.03;;;;;;;12.17;50.30;100860.28;4975128;29;20028;-66
2021/12/07 03:50:21;;;;;;;16.42;2.30;;;;;;;11.53;51.53;100857.63;4958148;29;20456;-65
2021/12/07 03:52:49;;;;;;;15.85;2.95;;;;;;;11.73;51.07;100851.69;4974758;29;20027;-62
2021/12/07 03:55:14;;;;;;;11.00;2.60;;;;;;;11.90;50.53;100861.16;4975198;29;20031;-65
2021/12/07 03:57:40;;;;;;;9.07;1.92;;;;;;;11.78;50.75;100856.25;4973754;28;20027;-64
2021/12/07 04:00:12;;;;;;;12.50;2.28;;;;;;;11.70;51.00;100860.53;4974958;29;20034;-66
2021/12/07 04:02:40;;;;;;;10.00;2.22;;;;;;;11.87;50.16;100856.31;4957620;29;20027;-64
2021/12/07 04:05:12;;;;;;;11.93;2.35;;;;;;;11.61;51.04;100856.91;4958190;29;20057;-64
2021/12/07 04:07:38;;;;;;;12.82;2.42;;;;;;;12.05;49.71;100866.31;4974668;29;20042;-67
2021/12/07 04:10:06;;;;;;;8.63;1.83;;;;;;;12.04;49.86;100861.97;4974753;29;20046;-65
2021/12/07 04:12:33;;;;;;;11.80;1.75;;;;;;;12.04;49.45;100877.63;4974695;29;20039;-63
2021/12/07 04:14:58;;;;;;;12.13;2.20;;;;;;;11.63;50.33;100871.16;4973647;29;20027;-65
2021/12/07 04:17:23;;;;;;;12.10;1.80;;;;;;;11.72;49.96;100873.97;4973512;29;20042;-67
2021/12/07 04:19:49;;;;;;;12.75;1.92;;;;;;;11.66;50.39;100892.50;4956970;28;20038;-66
2021/12/07 04:22:14;;;;;;;7.38;1.58;;;;;;;11.19;51.29;100881.69;4957233;29;20023;-68
2021/12/07 04:24:39;;;;;;;6.45;1.52;;;;;;;11.10;51.05;100866.25;4940893;29;20609;-63
2021/12/07 04:27:05;;;;;;;9.93;2.08;;;;;;;11.29;51.17;100877.91;4941390;29;20043;-65
2021/12/07 04:29:31;;;;;;;9.40;1.83;;;;;;;11.28;50.86;100881.78;4957450;29;20058;-65
2021/12/07 04:31:56;;;;;;;9.48;1.80;;;;;;;11.26;51.11;100870.28;4973970;29;20031;-65
2021/12/07 04:34:22;;;;;;;13.32;2.00;;;;;;;11.54;50.33;100889.47;4974312;29;20043;-65
2021/12/07 04:36:47;;;;;;;11.15;1.83;;;;;;;11.91;49.37;100893.03;4941259;29;20055;-65
2021/12/07 04:39:13;;;;;;;7.43;1.45;;;;;;;11.95;49.32;100885.81;4956995;29;20155;-66
2021/12/07 04:41:41;;;;;;;12.30;1.85;;;;;;;11.80;49.73;100887.78;4956910;29;20042;-66
2021/12/07 04:44:06;;;;;;;10.43;2.05;;;;;;;12.02;49.16;100899.13;4973865;29;20034;-66
2021/12/07 04:47:25;;;;;;;6.75;1.73;;;;;;;11.97;49.22;100894.56;4973988;29;20035;-64
2021/12/07 04:57:45;;;;;;;7.53;1.95;;;;;;;12.19;48.31;100903.94;4971364;29;20109;-64
2021/12/07 05:00:18;;;;;;;10.80;1.92;;;;;;;10.88;51.43;100889.72;4973571;29;20144;-64
2021/12/07 05:02:46;;;;;;;8.65;1.95;;;;;;;11.78;49.68;100900.19;4973488;29;20037;-63
2021/12/07 05:05:14;;;;;;;9.02;2.10;;;;;;;11.90;48.64;100903.22;4972460;28;20044;-65
2021/12/07 05:07:47;;;;;;;6.50;1.42;;;;;;;12.01;48.10;100906.56;4973305;29;20031;-63
2021/12/07 05:12:55;;;;;;;9.05;1.92;;;;;;;12.04;47.73;100918.84;4973130;29;20031;-64
2021/12/07 05:15:43;;;;;;;10.70;1.85;;;;;;;12.10;47.30;100928.59;4973697;29;20030;-65
2021/12/07 05:39:44;;;;;;;6.32;1.50;;;;;;;11.54;47.74;100969.09;4972842;29;20128;-66
2021/12/07 05:42:12;;;;;;;9.23;2.05;;;;;;;11.26;48.21;100969.09;4973123;29;20568;-64
2021/12/07 05:44:37;;;;;;;;;;;;;;;11.51;47.80;100965.03;4972464;28;20110;-63
2021/12/07 05:47:03;;;;;;;8.43;1.80;;;;;;;11.27;48.30;100978.97;4955656;29;20020;-64
2021/12/07 05:49:29;;;;;;;7.60;1.52;;;;;;;11.13;48.22;100970.72;4972934;29;20033;-63
2021/12/07 05:51:54;;;;;;;9.25;2.13;;;;;;;11.15;48.35;100968.50;4939310;29;20035;-66
2021/12/07 05:54:20;;;;;;;7.55;1.58;;;;;;;11.22;47.86;100963.41;4972803;29;20027;-64
2021/12/07 05:56:45;;;;;;;9.15;1.67;;;;;;;11.19;48.10;100954.97;4972994;29;20094;-63
2021/12/07 05:59:10;;;;;;;7.07;1.80;;;;;;;11.18;48.12;100954.16;4955859;29;20027;-63
2021/12/07 06:01:36;;;;;;;9.10;2.00;;;;;;;11.18;47.91;100937.72;4955766;29;20035;-63
2021/12/07 06:04:01;;;;;;;6.18;1.55;;;;;;;11.15;48.34;100942.97;4939529;29;20035;-63
2021/12/07 06:06:26;;;;;;;8.30;1.83;;;;;;;11.10;48.33;100948.56;4955909;29;20098;-64
2021/12/07 06:08:52;;;;;;;7.63;2.17;;;;;;;11.04;48.15;100943.19;4955627;29;20039;-65
2021/12/07 06:11:18;;;;;;;7.53;1.85;;;;;;;11.11;47.89;100958.44;4955828;29;20054;-63
2021/12/07 06:13:44;;;;;;;8.50;1.98;;;;;;;10.89;48.29;100957.97;4940109;29;20035;-66
2021/12/07 06:16:09;;;;;;;9.50;1.92;;;;;;;10.80;48.25;100953.50;4955483;29;20061;-64
2021/12/07 06:18:36;;;;;;;7.75;1.70;;;;;;;10.68;48.68;100957.53;4971774;29;20036;-64
2021/12/07 06:21:02;;;;;;;7.90;1.80;;;;;;;10.48;48.73;100961.47;4972205;29;20019;-65
2021/12/07 06:23:27;;;;;;;9.90;1.65;;;;;;;10.48;48.91;100966.09;4971757;29;20031;-65
2021/12/07 06:25:54;;;;;;;7.35;1.80;;;;;;;10.49;48.79;100959.53;4972144;29;20094;-65
2021/12/07 06:28:20;;;;;;;7.47;1.85;;;;;;;10.38;49.14;100958.06;4955947;29;20039;-64
2021/12/07 06:30:47;;;;;;;6.25;1.80;;;;;;;10.14;49.06;100959.75;4972637;29;20034;-61
2021/12/07 06:33:14;;;;;;;8.75;2.00;;;;;;;10.06;49.04;100965.09;4972099;29;20030;-63
2021/12/07 06:35:41;;;;;;;6.13;2.00;;;;;;;10.20;48.70;100957.75;4972678;29;20037;-62
2021/12/07 06:38:06;;;;;;;7.60;1.92;;;;;;;10.12;49.08;100966.66;4952069;29;20035;-64
2021/12/07 06:40:32;;;;;;;12.68;2.38;;;;;;;10.10;49.10;100964.22;4961784;29;20039;-62
2021/12/07 06:42:59;;;;;;;8.88;2.10;;;;;;;10.11;48.94;100971.31;4963164;29;20027;-63
2021/12/07 06:45:27;;;;;;;7.57;1.75;;;;;;;10.14;49.04;100975.38;4957865;29;20034;-62
2021/12/07 06:47:53;;;;;;;;;;;;;;;10.35;48.88;100964.94;4975742;28;20035;-63
2021/12/07 06:50:19;;;;;;;8.30;2.17;;;;;;;9.91;49.47;100961.47;4976092;29;19914;-63
2021/12/07 06:52:44;;;;;;;10.30;2.05;;;;;;;9.90;49.51;100959.84;4952123;29;20474;-65
2021/12/07 06:55:10;;;;;;;9.30;2.20;;;;;;;9.83;49.79;100953.09;4963965;29;20055;-66
2021/12/07 06:57:35;;;;;;;9.35;2.10;;;;;;;9.75;49.72;100958.13;4952646;29;20039;-66
2021/12/07 07:00:03;;;;;;;9.77;1.70;;;;;;;9.87;49.72;100965.91;4958862;29;20035;-67
2021/12/07 07:02:28;;;;;;;12.15;2.17;;;;;;;9.39;51.15;100971.47;4976076;28;20035;-65
2021/12/07 07:04:54;;;;;;;5.18;2.13;;;;;;;8.90;53.03;100971.41;4974808;29;20109;-64
2021/12/07 07:07:22;;;;;;;9.88;1.98;;;;;;;9.33;51.90;100975.38;4974619;29;20039;-64
2021/12/07 07:09:47;;;;;;;11.68;2.22;;;;;;;9.37;51.92;100971.75;4928590;29;20034;-62
2021/12/07 07:12:13;;;;;;;7.90;2.10;;;;;;;9.35;52.08;100975.88;4957984;29;20043;-62
2021/12/07 07:14:38;;;;;;;7.88;2.40;;;;;;;9.78;50.97;100976.72;4955461;29;20107;-63
2021/12/07 07:17:03;;;;;;;8.07;2.15;;;;;;;9.72;50.75;100986.09;4957512;29;20035;-65
2021/12/07 07:19:29;;;;;;;9.35;2.30;;;;;;;9.32;51.69;100979.19;4941826;29;20095;-64
2021/12/07 07:21:54;;;;;;;7.90;2.20;;;;;;;8.90;53.14;100981.56;4974611;29;20062;-66
2021/12/07 07:24:20;;;;;;;10.38;2.72;;;;;;;9.33;51.93;100965.22;4974593;29;20031;-63
2021/12/07 07:26:45;;;;;;;10.77;2.38;;;;;;;9.24;52.24;100973.28;4941995;29;20059;-63
2021/12/07 07:29:10;;;;;;;11.55;2.63;;;;;;;9.39;51.95;100963.25;4941374;29;20680;-62
2021/12/07 07:31:40;;;;;;;9.13;2.67;;;;;;;9.12;52.43;100956.44;4957462;29;20036;-63
2021/12/07 07:34:06;;;;;;;10.30;2.17;;;;;;;9.34;52.16;100941.44;4974331;29;20039;-65
2021/12/07 07:36:31;;;;;;;9.70;2.60;;;;;;;9.15;53.22;100944.13;4974858;29;20023;-64
2021/12/07 07:38:56;;;;;;;10.07;2.50;;;;;;;9.26;52.62;100943.69;4974333;29;20043;-66
2021/12/07 07:41:22;;;;;;;12.93;2.65;;;;;;;8.92;53.64;100960.19;4969713;29;20062;-63
2021/12/07 07:43:47;;;;;;;10.65;2.30;;;;;;;8.93;54.02;100952.81;4925472;29;20031;-64
2021/12/07 07:46:13;;;;;;;9.27;2.60;;;;;;;9.21;52.80;100946.50;4974392;29;20027;-64
2021/12/07 07:48:38;;;;;;;13.55;2.67;;;;;;;8.67;54.75;100947.59;4956835;29;20035;-66
2021/12/07 07:51:04;;;;;;;9.00;2.50;;;;;;;8.94;54.01;100951.69;4972237;29;20031;-63
2021/12/07 07:53:29;;;;;;;10.02;2.67;;;;;;;8.78;54.35;100960.09;4957667;29;20031;-62
2021/12/07 07:55:55;;;;;;;8.43;2.60;;;;;;;9.32;52.67;100952.66;4937345;29;20031;-66
2021/12/07 07:58:20;;;;;;;11.13;3.08;;;;;;;9.49;52.28;100952.16;4951702;29;20039;-64
2021/12/07 08:00:47;;;;;;;8.63;2.50;;;;;;;9.21;52.58;100960.19;4954213;29;20038;-63
2021/12/07 08:03:13;;;;;;;8.65;2.35;;;;;;;8.98;53.04;100960.97;4956644;29;20023;-64
2021/12/07 08:05:38;;;;;;;8.52;2.05;;;;;;;8.84;53.06;100966.28;4972865;29;20058;-63
2021/12/07 08:08:04;;;;;;;14.88;2.75;;;;;;;8.52;54.71;100964.94;4953800;29;20031;-64
2021/12/07 08:10:29;;;;;;;13.77;2.40;;;;;;;8.46;55.47;100972.38;4965913;29;20042;-63
2021/12/07 08:12:57;;;;;;;13.60;3.22;;;;;;;8.45;55.90;100970.75;4974715;29;20038;-63
2021/12/07 08:15:24;;;;;;;11.50;2.80;;;;;;;8.45;56.26;100970.75;4974284;29;20031;-65
2021/12/07 08:17:49;;;;;;;13.52;2.95;;;;;;;8.46;56.41;100964.19;4957595;29;20041;-66
2021/12/07 08:20:15;;;;;;;11.32;2.75;;;;;;;8.38;56.30;100964.75;4953226;29;20028;-66
2021/12/07 08:22:40;;;;;;;8.20;2.70;;;;;;;8.66;55.81;100962.38;4973284;29;20031;-65
2021/12/07 08:25:06;;;;;;;10.65;2.70;;;;;;;8.58;56.27;100973.94;4956674;29;20051;-66
2021/12/07 08:27:32;;;;;;;11.07;3.15;;;;;;;7.99;57.77;100971.03;4957279;29;20043;-63
2021/12/07 08:29:57;;;;;;;11.38;3.20;;;;;;;7.92;59.47;100970.53;4957285;29;20031;-64
2021/12/07 08:32:23;;;;;;;9.80;2.75;;;;;;;8.25;59.21;100968.94;4956915;28;20047;-64
2021/12/07 08:34:48;;;;;;;17.98;3.13;;;;;;;8.46;59.02;100980.59;4957152;29;20046;-63
2021/12/07 08:37:13;;;;;;;12.27;3.08;;;;;;;8.27;60.11;100971.38;4956666;29;20093;-66
2021/12/07 08:39:39;;;;;;;14.35;3.10;;;;;;;8.31;60.06;100972.47;4972792;28;20046;-64
2021/12/07 08:42:05;;;;;;;11.18;2.75;;;;;;;8.49;59.88;100977.25;4973662;29;20035;-65
2021/12/07 08:44:32;;;;;;;11.00;2.97;;;;;;;8.75;59.45;100974.31;4972610;28;20039;-65
2021/12/07 08:46:58;;;;;;;15.00;2.67;;;;;;;8.68;60.16;100971.09;4956614;29;20279;-65
2021/12/07 08:49:23;;;;;;;11.82;2.72;;;;;;;8.49;60.80;100966.31;4956094;29;20043;-65
2021/12/07 08:51:50;;;;;;;14.02;2.50;;;;;;;8.46;60.82;100968.81;4973454;29;20083;-64
2021/12/07 08:59:44;;;;;;;15.57;3.00;;;;;;;8.94;60.11;100962.63;4973662;29;20053;-65
2021/12/07 09:02:12;;;;;;;13.57;2.65;;;;;;;9.06;60.34;100968.53;4972946;29;20023;-62
2021/12/07 09:04:38;;;;;;;13.60;2.90;;;;;;;9.24;60.36;100964.22;4973259;29;20027;-63
2021/12/07 09:07:05;;;;;;;13.10;2.63;;;;;;;9.14;60.40;100970.63;4971495;28;20035;-66
2021/12/07 09:09:31;;;;;;;11.18;2.30;;;;;;;9.84;58.49;100961.00;4933185;29;20057;-66
2021/12/07 09:11:57;;;;;;;15.60;2.85;;;;;;;9.71;58.69;100961.75;4950206;29;20038;-65
2021/12/07 09:14:23;;;;;;;12.40;3.00;;;;;;;9.14;60.51;100958.88;4953435;29;20023;-64
2021/12/07 09:16:49;;;;;;;9.18;2.85;;;;;;;9.61;58.76;100963.50;4940167;28;20081;-63
2021/12/07 09:19:15;;;;;;;11.00;2.95;;;;;;;9.25;59.93;100954.94;4966058;29;20019;-63
2021/12/07 09:21:41;;;;;;;17.30;4.32;;;;;;;9.73;58.48;100960.34;4969487;29;20051;-63
2021/12/07 09:24:07;;;;;;;14.60;4.05;;;;;;;9.46;59.62;100960.16;4971806;28;20046;-65
2021/12/07 09:26:33;;;;;;;14.68;3.83;;;;;;;9.63;58.62;100949.53;4960021;29;20063;-64
2021/12/07 09:28:58;;;;;;;15.18;4.25;;;;;;;9.68;58.85;100956.88;4955598;28;20067;-63
2021/12/07 09:31:25;;;;;;;14.88;3.58;;;;;;;9.55;58.60;100953.75;4969950;28;20031;-64
2021/12/07 09:33:51;;;;;;;16.15;4.00;;;;;;;9.55;58.61;100956.47;4955751;29;20136;-63
2021/12/07 09:36:17;;;;;;;14.98;4.03;;;;;;;10.50;56.49;100955.69;4966686;29;20083;-64
2021/12/07 09:38:43;;;;;;;10.27;4.00;;;;;;;10.21;56.96;100953.88;4967020;28;20038;-66
2021/12/07 09:41:10;;;;;;;15.30;3.72;;;;;;;10.22;57.07;100950.03;4972532;29;20031;-65
2021/12/07 09:43:36;;;;;;;17.70;3.78;;;;;;;9.63;57.78;100965.97;4971679;29;20023;-65
2021/12/07 09:46:03;;;;;;;14.68;4.05;;;;;;;10.10;57.54;100969.69;4971513;28;20023;-65
2021/12/07 09:48:29;;;;;;;11.05;3.53;;;;;;;9.95;57.67;100972.66;4931003;29;20024;-64
2021/12/07 09:50:55;;;;;;;14.45;4.03;;;;;;;10.29;56.87;100963.38;4950471;28;20086;-64
2021/12/07 09:53:23;;;;;;;17.23;3.88;;;;;;;9.52;58.44;100969.94;4968810;29;20043;-64
2021/12/07 09:55:49;;;;;;;19.60;4.32;;;;;;;10.69;56.38;100972.88;4969508;29;20035;-64
2021/12/07 09:58:15;;;;;;;16.00;4.53;;;;;;;10.78;55.68;100974.94;4953972;29;20035;-64
2021/12/07 10:00:43;;;;;;;15.37;4.37;;;;;;;10.95;55.36;100977.91;4948376;29;20750;-65
2021/12/07 10:03:09;;;;;;;16.67;3.88;;;;;;;10.59;55.65;100972.25;4967515;29;20295;-63
2021/12/07 10:05:35;;;;;;;11.43;4.35;;;;;;;10.13;57.20;100973.75;4945509;29;20047;-64
2021/12/07 10:08:05;;;;;;;16.58;4.60;;;;;;;10.79;55.94;100971.09;4967657;29;20059;-66
2021/12/07 10:10:34;;;;;;;15.82;4.95;;;;;;;11.19;55.42;100964.00;4963908;29;20034;-66
2021/12/07 10:13:00;;;;;;;15.55;4.35;;;;;;;11.72;53.79;100959.91;4969469;29;20086;-63
2021/12/07 10:15:26;;;;;;;14.20;3.97;;;;;;;11.44;54.70;100957.19;4947799;29;20146;-65
2021/12/07 10:18:13;;;;;;;10.68;3.50;;;;;;;12.22;52.79;100952.78;4956242;28;20285;-65
2021/12/07 10:20:42;;;;;;;18.70;4.18;;;;;;;11.49;53.65;100947.25;4969974;28;20066;-64
2021/12/07 10:23:14;;;;;;;15.73;4.07;;;;;;;11.14;53.86;100941.38;4971721;28;20048;-66
2021/12/07 10:25:41;;;;;;;13.10;4.18;;;;;;;11.66;52.68;100930.94;4947436;28;20119;-65
2021/12/07 10:28:37;;;;;;;11.40;3.75;;;;;;;11.16;54.20;100911.69;4956244;29;20023;-66
2021/12/07 10:31:08;;;;;;;16.58;4.32;;;;;;;11.37;53.22;100909.31;4968168;29;20031;-65
2021/12/07 10:33:46;;;;;;;14.63;4.10;;;;;;;11.29;53.70;100905.34;4955292;29;20038;-64
2021/12/07 10:36:16;;;;;;;18.10;4.68;;;;;;;11.77;52.45;100904.88;4972231;29;20079;-65
2021/12/07 10:38:49;;;;;;;17.88;4.82;;;;;;;12.12;51.81;100899.69;4969910;29;20023;-67
2021/12/07 10:41:21;;;;;;;19.85;5.32;;;;;;;11.86;51.71;100895.91;4971030;29;20023;-63
2021/12/07 10:43:52;;;;;;;17.67;5.10;;;;;;;11.90;52.02;100891.38;4936705;29;20032;-64
2021/12/07 10:46:26;;;;;;;19.63;5.50;;;;;;;12.70;50.71;100886.13;4974158;29;20051;-67
2021/12/07 10:49:15;;;;;;;25.02;6.43;;;;;;;12.37;50.93;100882.88;4956945;29;20728;-64
2021/12/07 10:52:02;;;;;;;27.13;6.15;;;;;;;12.14;51.15;100891.13;4971979;29;20082;-64
2021/12/07 10:54:30;;;;;;;27.08;6.00;;;;;;;12.24;50.88;100879.88;4972991;28;20815;-64
2021/12/07 10:56:59;;;;;;;19.80;5.32;;;;;;;11.72;51.29;100877.50;4970952;29;20038;-63
2021/12/07 10:59:24;;;;;;;20.20;5.88;;;;;;;12.07;50.82;100883.31;4974912;28;20027;-65
2021/12/07 11:01:53;;;;;;;21.98;6.45;;;;;;;12.41;49.99;100890.19;4972272;29;20063;-63
2021/12/07 11:04:33;;;;;;;25.33;6.00;;;;;;;11.74;50.97;100883.53;4968283;29;20030;-64
2021/12/07 11:07:20;;;;;;;26.75;6.10;;;;;;;11.78;51.42;100879.00;4972857;29;20112;-64
2021/12/07 11:09:55;;;;;;;;;;;;;;;11.95;50.25;100883.06;4973656;29;20027;-65
2021/12/07 11:12:21;;;;;;;25.30;6.93;;;;;;;11.41;52.32;100878.22;4944078;29;19917;-66
2021/12/07 11:14:53;;;;;;;21.48;6.85;;;;;;;10.87;52.68;100877.13;4969939;29;20031;-65
2021/12/07 11:17:33;;;;;;;23.15;6.18;;;;;;;10.92;52.62;100868.81;4960457;28;20023;-64
2021/12/07 11:20:01;;;;;;;22.45;5.70;;;;;;;11.07;52.58;100860.28;4970656;29;20046;-64
2021/12/07 11:22:31;;;;;;;22.83;6.40;;;;;;;11.26;52.55;100862.06;4974864;29;20031;-65
2021/12/07 11:24:58;;;;;;;26.02;7.03;;;;;;;11.05;52.56;100862.47;4973419;29;20025;-64
2021/12/07 11:30:41;;;;;;;25.40;6.55;;;;;;;10.48;53.70;100849.06;4955251;29;20042;-66
2021/12/07 11:33:06;;;;;;;24.98;6.32;;;;;;;9.70;54.79;100845.13;4952838;29;20098;-64
2021/12/07 11:35:34;;;;;;;31.35;6.03;;;;;;;10.87;52.15;100834.06;4956967;29;20027;-63
2021/12/07 11:38:05;;;;;;;29.65;6.57;;;;;;;11.04;52.21;100827.16;4965943;28;20405;-65
2021/12/07 11:40:35;;;;;;;27.65;6.32;;;;;;;10.58;52.62;100826.16;4971132;28;20035;-63
2021/12/07 11:43:00;;;;;;;28.95;6.32;;;;;;;10.40;52.82;100814.13;4969023;28;20023;-63
2021/12/07 11:45:29;;;;;;;25.90;6.28;;;;;;;10.26;53.06;100819.56;4968991;28;20031;-66
2021/12/07 11:48:04;;;;;;;23.83;5.60;;;;;;;10.32;52.54;100807.44;4968849;28;20023;-64
2021/12/07 11:50:42;;;;;;;29.05;6.78;;;;;;;10.59;52.92;100799.53;4968860;28;20035;-62
2021/12/07 11:53:10;;;;;;;24.45;7.05;;;;;;;10.61;52.80;100784.41;4967416;29;20023;-64
2021/12/07 11:55:40;;;;;;;28.08;7.20;;;;;;;11.06;52.25;100786.50;4950810;29;20163;-63
2021/12/07 11:58:07;;;;;;;25.05;6.88;;;;;;;10.60;52.83;100773.75;4967058;29;20027;-66
2021/12/07 12:00:37;;;;;;;16.17;5.10;;;;;;;10.86;51.76;100765.78;4966694;29;20038;-65
2021/12/07 12:03:05;;;;;;;19.58;5.45;;;;;;;10.31;52.82;100759.19;4969301;28;20047;-64
2021/12/07 12:05:30;;;;;;;20.05;5.00;;;;;;;11.21;50.75;100749.66;4965870;29;20058;-62
2021/12/07 12:07:56;;;;;;;17.48;4.65;;;;;;;10.73;52.01;100734.53;4952793;29;20028;-64
2021/12/07 12:10:22;;;;;;;13.40;4.40;;;;;;;10.22;52.16;100730.88;4956785;29;20131;-65
2021/12/07 12:13:11;;;;;;;15.27;4.35;;;;;;;10.65;51.92;100736.06;4971132;29;20031;-63
2021/12/07 12:16:04;;;;;;;14.30;4.57;;;;;;;10.50;52.43;100736.41;4971726;29;20030;-62
2021/12/07 12:18:54;;;;;;;13.18;4.32;;;;;;;10.96;51.37;100721.72;4970961;29;20038;-64
2021/12/07 12:21:40;;;;;;;12.23;4.10;;;;;;;10.33;52.23;100713.13;4952234;29;20030;-66
2021/12/07 12:24:24;;;;;;;11.32;4.50;;;;;;;10.29;52.92;100714.84;4967684;28;20555;-63
2021/12/07 12:27:03;;;;;;;13.02;4.35;;;;;;;10.23;52.30;100718.81;4965559;28;20070;-63
2021/12/07 12:29:33;;;;;;;11.70;4.25;;;;;;;10.94;51.51;100710.22;4953530;29;20042;-65
2021/12/07 12:31:58;;;;;;;10.88;3.78;;;;;;;10.07;53.02;100701.00;4970021;29;20385;-64
2021/12/07 12:34:28;;;;;;;10.85;3.92;;;;;;;10.32;52.29;100697.84;4961651;29;20020;-64
2021/12/07 12:37:08;;;;;;;12.45;4.18;;;;;;;10.57;52.28;100684.69;4953560;28;20058;-63
2021/12/07 12:39:43;;;;;;;13.00;3.90;;;;;;;10.68;51.97;100683.34;4955944;29;20035;-63
2021/12/07 12:42:10;;;;;;;13.07;4.07;;;;;;;10.75;51.45;100680.19;4972203;28;20035;-64
2021/12/07 12:44:37;;;;;;;11.23;3.53;;;;;;;10.51;51.15;100662.09;4969160;29;20036;-62
2021/12/07 12:47:05;;;;;;;12.88;3.33;;;;;;;10.74;50.41;100628.41;4956312;29;20035;-64
2021/12/07 12:49:42;;;;;;;11.63;3.60;;;;;;;10.97;50.44;100638.28;4971773;29;20027;-65
2021/12/07 12:52:08;;;;;;;14.00;3.53;;;;;;;10.44;51.63;100652.66;4973138;28;20085;-64
2021/12/07 12:54:40;;;;;;;11.38;3.00;;;;;;;9.72;52.92;100632.94;4970065;28;20035;-63
2021/12/07 12:57:15;;;;;;;10.38;3.03;;;;;;;10.56;51.23;100613.75;4969661;29;20020;-66
2021/12/07 12:59:42;;;;;;;12.27;3.20;;;;;;;11.10;50.39;100627.56;4971656;28;20079;-62
2021/12/07 13:02:10;;;;;;;10.48;2.90;;;;;;;11.02;50.16;100621.72;4965490;29;20038;-64
2021/12/07 13:04:36;;;;;;;10.40;2.90;;;;;;;10.55;51.00;100612.94;4953498;28;20039;-66